Time;durP1;ratioP1;P1;durP2;ratioP2;P2;SDS_P1;SDS_P2;PMS_P1;PMS_P2;Temp;Humidity;BMP_temperature;BMP_pressure;BME280_temperature;BME280_humidity;BME280_pressure;Samples;Min_cycle;Max_cycle;Signal;HPM_P1;HPM_P2
2023/10/07 00:00:49;;;;;;;22.98;15.38;;;17.10;99.90;;;;;;6160357;23;20009;-85
2023/10/07 00:03:16;;;;;;;25.20;13.57;;;17.10;99.90;;;;;;6135974;23;20052;-83
2023/10/07 00:05:44;;;;;;;22.25;12.95;;;17.10;99.90;;;;;;6160232;23;20005;-84
2023/10/07 00:08:12;;;;;;;25.70;18.05;;;17.10;99.90;;;;;;6136054;23;20036;-83
2023/10/07 00:10:40;;;;;;;32.28;15.90;;;17.10;99.90;;;;;;6160393;23;20017;-84
2023/10/07 00:13:09;;;;;;;23.90;14.38;;;17.10;99.90;;;;;;6161543;23;20013;-84
2023/10/07 00:15:36;;;;;;;23.08;14.10;;;17.10;99.90;;;;;;6160772;23;20448;-83
2023/10/07 00:18:12;;;;;;;26.45;15.85;;;17.20;99.90;;;;;;6136947;23;20091;-84
2023/10/07 00:20:47;;;;;;;22.40;12.27;;;17.20;99.90;;;;;;6161026;23;20388;-84
2023/10/07 00:23:18;;;;;;;24.25;13.20;;;17.20;99.90;;;;;;6161166;23;20048;-84
2023/10/07 00:25:49;;;;;;;29.20;22.48;;;17.20;99.90;;;;;;6160188;23;20013;-84
2023/10/07 00:28:19;;;;;;;21.45;13.52;;;17.20;99.90;;;;;;6137171;23;20442;-84
2023/10/07 00:30:53;;;;;;;25.13;14.23;;;17.20;99.90;;;;;;6160970;23;20071;-84
2023/10/07 00:33:22;;;;;;;22.33;13.25;;;17.20;99.90;;;;;;6161890;23;20411;-84
2023/10/07 00:35:53;;;;;;;25.80;13.40;;;17.20;99.90;;;;;;6160871;23;20024;-84
2023/10/07 00:38:24;;;;;;;28.77;16.42;;;17.20;99.90;;;;;;6137135;23;20056;-84
2023/10/07 00:40:54;;;;;;;27.35;14.20;;;17.20;99.90;;;;;;6135796;23;20017;-84
2023/10/07 00:43:30;;;;;;;17.13;13.05;;;17.20;99.90;;;;;;6160756;23;20024;-84
2023/10/07 00:46:47;;;;;;;25.25;14.40;;;17.20;99.90;;;;;;6136588;23;20024;-84
2023/10/07 00:48:52;;;;;;;22.77;15.55;;;17.20;99.90;;;;;;6145402;23;20088;-84
2023/10/07 00:51:24;;;;;;;23.13;13.38;;;17.30;99.90;;;;;;6135718;23;20021;-85
2023/10/07 00:53:53;;;;;;;28.52;15.10;;;17.20;99.90;;;;;;6159528;23;20654;-83
2023/10/07 00:56:22;;;;;;;19.40;11.50;;;17.20;99.90;;;;;;6135184;23;20391;-84
2023/10/07 00:58:52;;;;;;;25.10;16.63;;;17.10;99.90;;;;;;6159486;23;20021;-83
2023/10/07 01:01:19;;;;;;;17.95;11.05;;;17.20;99.90;;;;;;6159057;23;20023;-83
2023/10/07 01:03:48;;;;;;;19.67;10.60;;;17.10;99.90;;;;;;6158766;23;20360;-83
2023/10/07 01:06:26;;;;;;;25.00;11.98;;;17.00;99.90;;;;;;6157528;23;20017;-83
2023/10/07 01:09:10;;;;;;;25.30;15.30;;;17.00;99.90;;;;;;6156653;23;20024;-83
2023/10/07 01:11:46;;;;;;;21.48;11.50;;;17.10;99.90;;;;;;6157215;23;20051;-83
2023/10/07 01:14:12;;;;;;;19.00;13.05;;;17.00;99.90;;;;;;6156736;23;20013;-83
2023/10/07 01:16:42;;;;;;;24.98;13.75;;;17.00;99.90;;;;;;6132206;23;20048;-83
2023/10/07 01:21:41;;;;;;;27.08;12.23;;;16.90;99.90;;;;;;6156352;23;20151;-82
2023/10/07 01:24:13;;;;;;;28.13;14.32;;;16.90;99.90;;;;;;6156314;23;20013;-82
2023/10/07 01:26:40;;;;;;;20.45;13.13;;;17.10;99.90;;;;;;6156754;23;20013;-83
2023/10/07 01:29:16;;;;;;;29.25;19.67;;;16.80;99.90;;;;;;6156719;23;20048;-82
2023/10/07 01:32:00;;;;;;;33.03;15.35;;;16.80;99.90;;;;;;6182910;23;20016;-83
2023/10/07 01:34:35;;;;;;;27.30;12.35;;;16.80;99.90;;;;;;6132197;23;20467;-81
2023/10/07 01:37:11;;;;;;;26.95;15.77;;;16.80;99.90;;;;;;6156261;23;20060;-83
2023/10/07 01:39:40;;;;;;;21.75;12.93;;;16.80;99.90;;;;;;6132728;23;20009;-83
2023/10/07 01:42:22;;;;;;;24.50;12.43;;;16.80;99.90;;;;;;6131595;23;20152;-83
2023/10/07 01:44:54;;;;;;;26.98;12.57;;;16.80;99.90;;;;;;6156868;23;20407;-82
2023/10/07 01:47:29;;;;;;;27.63;11.80;;;16.80;99.90;;;;;;6132252;23;20109;-83
2023/10/07 01:49:56;;;;;;;21.67;13.68;;;16.80;99.90;;;;;;6156465;23;20028;-83
2023/10/07 01:52:32;;;;;;;22.02;16.08;;;16.80;99.90;;;;;;6182189;23;20371;-83
2023/10/07 01:54:59;;;;;;;25.17;11.93;;;16.80;99.90;;;;;;6157243;23;20009;-83
2023/10/07 01:57:26;;;;;;;24.98;17.55;;;16.80;99.90;;;;;;6156274;23;20575;-83
2023/10/07 01:59:57;;;;;;;25.20;18.70;;;16.80;99.90;;;;;;6155974;23;20040;-83
2023/10/07 02:02:25;;;;;;;19.95;12.18;;;16.80;99.90;;;;;;6132580;23;20009;-82
2023/10/07 02:04:55;;;;;;;23.27;14.75;;;16.80;99.90;;;;;;6132029;23;20017;-83
2023/10/07 02:07:21;;;;;;;22.52;13.70;;;16.80;99.90;;;;;;6155946;23;20024;-83
2023/10/07 02:09:48;;;;;;;25.42;12.18;;;16.80;99.90;;;;;;6132610;23;20580;-83
2023/10/07 02:12:18;;;;;;;26.17;15.77;;;16.80;99.90;;;;;;6132569;23;20016;-83
2023/10/07 02:14:44;;;;;;;22.17;15.57;;;16.80;99.90;;;;;;6156558;23;20347;-82
2023/10/07 02:17:14;;;;;;;24.92;15.82;;;16.80;99.90;;;;;;6156234;23;20321;-83
2023/10/07 02:19:43;;;;;;;21.15;14.15;;;16.80;99.90;;;;;;6155991;23;20013;-83
2023/10/07 02:22:20;;;;;;;25.90;14.48;;;16.80;99.90;;;;;;6155978;23;20013;-83
2023/10/07 02:24:52;;;;;;;24.50;12.13;;;16.60;99.90;;;;;;6156733;23;20016;-83
2023/10/07 02:27:18;;;;;;;23.13;14.65;;;16.90;99.90;;;;;;6156271;23;20024;-82
2023/10/07 02:29:48;;;;;;;26.23;13.50;;;16.90;99.90;;;;;;6131616;23;20013;-83
2023/10/07 02:32:17;;;;;;;22.50;14.10;;;16.80;99.90;;;;;;6157604;23;20024;-82
2023/10/07 02:34:53;;;;;;;26.77;12.48;;;16.90;99.90;;;;;;6131409;23;20352;-83
2023/10/07 02:37:21;;;;;;;22.15;18.25;;;16.90;99.90;;;;;;6156639;23;20021;-83
2023/10/07 02:39:48;;;;;;;21.58;13.85;;;16.90;99.90;;;;;;6155801;23;20020;-82
2023/10/07 02:42:24;;;;;;;21.70;12.13;;;16.90;99.90;;;;;;6156038;23;20456;-83
2023/10/07 02:45:01;;;;;;;22.02;13.55;;;17.00;99.90;;;;;;6131506;23;20025;-83
2023/10/07 02:47:32;;;;;;;28.17;12.30;;;17.00;99.90;;;;;;6156803;23;20017;-82
2023/10/07 02:50:00;;;;;;;19.73;11.27;;;17.00;99.90;;;;;;6155712;23;20047;-83
2023/10/07 02:52:34;;;;;;;21.50;14.98;;;17.00;99.90;;;;;;6156229;23;20064;-83
2023/10/07 02:57:45;;;;;;;18.73;11.85;;;17.00;99.90;;;;;;6182676;23;20028;-83
2023/10/07 03:00:18;;;;;;;22.45;10.65;;;17.00;99.90;;;;;;6156219;23;20049;-83
2023/10/07 03:03:09;;;;;;;29.40;12.98;;;17.00;99.90;;;;;;6156716;23;20317;-83
2023/10/07 03:05:37;;;;;;;21.80;15.07;;;17.00;99.90;;;;;;6156000;23;20064;-83
2023/10/07 03:08:03;;;;;;;25.10;11.77;;;17.10;99.90;;;;;;6132341;23;20017;-84
2023/10/07 03:10:44;;;;;;;22.13;9.90;;;17.10;99.90;;;;;;6156768;23;20037;-83
2023/10/07 03:13:15;;;;;;;19.30;12.15;;;17.10;99.90;;;;;;6131974;23;20021;-83
2023/10/07 03:15:44;;;;;;;24.13;11.05;;;17.10;99.90;;;;;;6157677;23;20496;-83
2023/10/07 03:18:24;;;;;;;15.07;10.48;;;17.10;99.90;;;;;;6156308;23;20009;-83
2023/10/07 03:23:37;;;;;;;21.60;11.98;;;17.10;99.90;;;;;;6157113;23;20021;-84
2023/10/07 03:28:35;;;;;;;18.55;9.27;;;17.20;99.90;;;;;;6157170;23;20108;-83
2023/10/07 03:31:08;;;;;;;21.63;15.47;;;17.20;99.90;;;;;;6186042;23;20028;-83
2023/10/07 03:33:45;;;;;;;29.25;18.60;;;17.20;99.90;;;;;;6134521;23;20376;-83
2023/10/07 03:41:35;;;;;;;19.73;12.20;;;17.20;99.90;;;;;;6158945;23;20017;-84
2023/10/07 03:44:04;;;;;;;15.60;8.65;;;17.00;99.90;;;;;;6159037;23;20012;-83
2023/10/07 03:46:30;;;;;;;23.00;12.57;;;17.20;99.90;;;;;;6159991;23;20017;-83
2023/10/07 03:48:56;;;;;;;22.52;10.63;;;17.20;99.90;;;;;;6134926;23;20013;-84
2023/10/07 03:51:22;;;;;;;19.63;11.57;;;17.20;99.90;;;;;;6136456;23;20019;-84
2023/10/07 03:53:51;;;;;;;21.13;11.15;;;17.20;99.90;;;;;;6160177;23;20048;-84
2023/10/07 03:56:20;;;;;;;21.60;11.20;;;17.30;99.90;;;;;;6160128;23;20024;-83
2023/10/07 03:58:47;;;;;;;19.52;9.88;;;17.20;99.90;;;;;;6160327;23;20075;-83
2023/10/07 04:01:17;;;;;;;20.70;10.13;;;17.20;99.90;;;;;;6135140;23;20455;-83
2023/10/07 04:03:47;;;;;;;23.67;11.13;;;17.30;99.90;;;;;;6135288;23;20013;-83
2023/10/07 04:06:17;;;;;;;23.92;11.05;;;17.20;99.90;;;;;;6160454;23;20432;-84
2023/10/07 04:08:52;;;;;;;19.88;9.65;;;17.20;99.90;;;;;;6159805;23;20037;-82
2023/10/07 04:11:19;;;;;;;19.20;13.95;;;17.20;99.90;;;;;;6160097;23;20013;-84
2023/10/07 04:13:53;;;;;;;15.82;10.18;;;17.20;99.90;;;;;;6159464;23;20023;-83
2023/10/07 04:16:24;;;;;;;;;;;17.20;99.90;;;;;;6159190;23;20100;-84
2023/10/07 04:19:06;;;;;;;21.95;10.73;;;17.20;99.90;;;;;;6160286;23;19912;-83
2023/10/07 04:21:39;;;;;;;22.17;11.38;;;17.20;99.90;;;;;;6160444;23;20067;-83
2023/10/07 04:24:09;;;;;;;17.67;10.52;;;17.20;99.90;;;;;;6159717;23;20455;-83
2023/10/07 04:26:40;;;;;;;19.80;12.00;;;17.20;99.90;;;;;;6160615;23;20020;-83
2023/10/07 04:29:16;;;;;;;25.20;14.85;;;17.20;99.90;;;;;;6135236;23;20500;-84
2023/10/07 04:31:46;;;;;;;20.02;9.82;;;17.20;99.90;;;;;;6135463;23;20021;-84
2023/10/07 04:34:13;;;;;;;18.45;15.13;;;17.20;99.90;;;;;;6160405;23;20039;-84
2023/10/07 04:39:28;;;;;;;21.73;10.75;;;17.20;99.90;;;;;;6160316;23;20152;-84
2023/10/07 04:42:03;;;;;;;18.10;10.45;;;17.20;99.90;;;;;;6159724;23;20013;-84
2023/10/07 04:50:00;;;;;;;17.92;10.35;;;17.20;99.90;;;;;;6159985;23;20021;-83
2023/10/07 04:52:28;;;;;;;20.20;10.10;;;17.30;99.90;;;;;;6135349;23;20073;-84
2023/10/07 04:54:58;;;;;;;20.40;11.05;;;17.20;99.90;;;;;;6159727;23;20063;-84
2023/10/07 05:02:57;;;;;;;17.90;11.00;;;17.20;99.90;;;;;;6158696;23;20326;-83
2023/10/07 05:05:33;;;;;;;19.80;10.57;;;17.20;99.90;;;;;;6160520;23;20013;-84
2023/10/07 05:08:16;;;;;;;22.05;11.95;;;17.20;99.90;;;;;;6134576;23;20071;-83
2023/10/07 05:10:42;;;;;;;18.17;13.45;;;17.20;99.90;;;;;;6159034;23;20429;-83
2023/10/07 05:13:09;;;;;;;19.00;10.20;;;17.20;99.90;;;;;;6159759;23;20079;-84
2023/10/07 05:15:41;;;;;;;20.60;10.00;;;17.20;99.90;;;;;;6159763;23;20336;-83
2023/10/07 05:18:07;;;;;;;21.10;10.90;;;17.10;99.90;;;;;;6160204;23;20017;-84
2023/10/07 05:20:37;;;;;;;20.83;10.32;;;17.30;99.90;;;;;;6159875;23;20467;-83
2023/10/07 05:23:03;;;;;;;20.80;10.35;;;17.20;99.90;;;;;;6160417;23;20013;-84
2023/10/07 05:25:35;;;;;;;20.17;9.95;;;17.20;99.90;;;;;;6159626;23;20252;-84
2023/10/07 05:28:10;;;;;;;19.95;10.70;;;17.30;99.90;;;;;;6159708;23;20009;-83
2023/10/07 05:30:36;;;;;;;21.73;14.93;;;17.20;99.90;;;;;;6157828;23;20017;-83
2023/10/07 05:33:08;;;;;;;16.80;10.15;;;17.20;99.90;;;;;;6159370;23;20017;-84
2023/10/07 05:35:37;;;;;;;23.00;10.35;;;17.20;99.90;;;;;;6159252;23;20012;-84
2023/10/07 05:38:09;;;;;;;22.20;10.18;;;17.20;99.90;;;;;;6158485;23;20013;-83
2023/10/07 05:40:36;;;;;;;23.00;10.55;;;17.20;99.90;;;;;;6133443;23;20009;-84
2023/10/07 05:43:07;;;;;;;25.63;12.23;;;17.20;99.90;;;;;;6156817;23;20017;-84
2023/10/07 05:45:34;;;;;;;18.92;11.00;;;17.20;99.90;;;;;;6155394;23;20096;-84
2023/10/07 05:48:00;;;;;;;20.88;11.48;;;17.20;99.90;;;;;;6155573;23;20013;-85
2023/10/07 05:50:27;;;;;;;21.00;13.43;;;17.20;99.90;;;;;;6156205;23;20068;-84
2023/10/07 05:52:53;;;;;;;19.92;11.40;;;17.10;99.90;;;;;;6130605;23;20048;-84
2023/10/07 05:55:19;;;;;;;19.63;11.68;;;17.20;99.90;;;;;;6155390;23;20021;-84
2023/10/07 05:57:44;;;;;;;20.27;16.02;;;17.10;99.90;;;;;;6154902;23;20084;-84
2023/10/07 06:00:11;;;;;;;19.13;9.45;;;17.10;99.90;;;;;;6155462;23;20013;-84
2023/10/07 06:02:37;;;;;;;17.63;10.98;;;17.10;99.90;;;;;;6155279;23;20088;-84
2023/10/07 06:05:06;;;;;;;15.88;11.63;;;17.10;99.90;;;;;;6131521;23;20387;-84
2023/10/07 06:07:32;;;;;;;23.77;12.77;;;17.10;99.90;;;;;;6155150;23;20065;-83
2023/10/07 06:09:59;;;;;;;19.65;13.05;;;17.10;99.90;;;;;;6155219;23;20049;-84
2023/10/07 06:12:24;;;;;;;20.02;9.73;;;17.10;99.90;;;;;;6154601;23;20013;-84
2023/10/07 06:14:54;;;;;;;15.52;10.02;;;17.10;99.90;;;;;;6155068;23;20059;-84
2023/10/07 06:17:20;;;;;;;20.77;13.32;;;17.10;99.90;;;;;;6180609;23;20063;-84
2023/10/07 06:19:45;;;;;;;16.75;10.45;;;17.10;99.90;;;;;;6130942;23;20067;-84
2023/10/07 06:22:11;;;;;;;20.77;11.68;;;17.00;99.90;;;;;;6130702;23;20435;-84
2023/10/07 06:24:41;;;;;;;21.48;12.77;;;17.00;99.90;;;;;;6159505;23;20044;-83
2023/10/07 06:27:11;;;;;;;25.98;10.82;;;17.00;99.90;;;;;;6132704;23;20041;-86
2023/10/07 06:29:43;;;;;;;20.05;13.30;;;17.00;99.90;;;;;;6156468;23;20009;-85
2023/10/07 06:32:25;;;;;;;22.27;11.85;;;17.00;99.90;;;;;;6130569;23;20013;-86
2023/10/07 06:34:54;;;;;;;22.00;18.30;;;17.00;99.90;;;;;;6156329;23;20063;-85
2023/10/07 06:37:28;;;;;;;21.70;10.50;;;17.00;99.90;;;;;;6156098;23;20020;-85
2023/10/07 06:39:54;;;;;;;22.40;12.77;;;17.00;99.90;;;;;;6155157;23;20021;-85
2023/10/07 06:42:24;;;;;;;16.83;10.50;;;17.00;99.90;;;;;;6154887;23;20059;-86
2023/10/07 06:44:55;;;;;;;22.67;12.52;;;17.00;99.90;;;;;;6155063;23;20014;-85
2023/10/07 06:47:21;;;;;;;23.15;11.60;;;17.00;99.90;;;;;;6131576;23;20013;-87
2023/10/07 06:49:48;;;;;;;24.38;11.52;;;17.00;99.90;;;;;;6130943;23;20009;-86
2023/10/07 06:52:13;;;;;;;20.27;12.23;;;17.00;99.90;;;;;;6155700;23;20005;-87
2023/10/07 06:54:39;;;;;;;19.65;10.82;;;17.00;99.90;;;;;;6155911;23;20514;-85
2023/10/07 06:57:10;;;;;;;20.23;10.57;;;17.00;99.90;;;;;;6130622;23;20352;-86
2023/10/07 06:59:40;;;;;;;21.25;12.77;;;17.10;99.90;;;;;;6131719;23;20005;-86
2023/10/07 07:02:06;;;;;;;24.95;12.00;;;17.10;99.90;;;;;;6156040;23;20017;-85
2023/10/07 07:04:33;;;;;;;18.25;11.80;;;17.10;99.90;;;;;;6134071;23;20017;-86
2023/10/07 07:07:10;;;;;;;25.67;9.23;;;17.10;99.90;;;;;;6159201;23;20024;-86
2023/10/07 07:12:09;;;;;;;21.08;12.07;;;17.10;99.90;;;;;;6158631;23;20029;-85
2023/10/07 07:14:36;;;;;;;23.98;17.30;;;17.10;99.90;;;;;;6159218;23;20020;-85
2023/10/07 07:22:45;;;;;;;20.20;10.35;;;17.30;99.90;;;;;;6185246;23;20013;-85
2023/10/07 07:25:17;;;;;;;21.05;11.75;;;17.50;99.90;;;;;;6133241;23;20016;-85
2023/10/07 07:27:48;;;;;;;24.33;11.57;;;17.60;99.90;;;;;;6134188;23;20013;-85
2023/10/07 07:30:30;;;;;;;17.75;10.02;;;17.70;99.90;;;;;;6158207;23;20020;-84
2023/10/07 07:32:59;;;;;;;19.65;10.63;;;17.70;99.90;;;;;;6133205;23;20020;-85
2023/10/07 07:35:39;;;;;;;22.13;12.15;;;17.70;99.90;;;;;;6157432;23;20017;-85
2023/10/07 07:38:22;;;;;;;22.40;10.40;;;17.70;99.90;;;;;;6133628;23;20062;-85
2023/10/07 07:40:49;;;;;;;20.75;10.93;;;17.70;99.90;;;;;;6157165;23;20021;-85
2023/10/07 07:43:15;;;;;;;20.60;10.48;;;17.70;99.90;;;;;;6157649;23;20091;-85
2023/10/07 07:45:41;;;;;;;17.77;10.48;;;17.70;99.90;;;;;;6132868;23;20432;-85
2023/10/07 07:48:07;;;;;;;15.52;10.00;;;17.80;99.90;;;;;;6139886;23;20013;-85
2023/10/07 07:50:35;;;;;;;20.65;10.88;;;17.50;99.90;;;;;;6169083;23;20024;-86
2023/10/07 07:53:06;;;;;;;18.20;11.27;;;17.80;99.90;;;;;;6169145;23;20057;-86
2023/10/07 07:55:43;;;;;;;23.33;11.02;;;17.90;99.90;;;;;;6145949;23;20020;-86
2023/10/07 07:58:10;;;;;;;18.45;11.32;;;18.00;99.90;;;;;;6144624;23;20016;-86
2023/10/07 08:00:58;;;;;;;19.98;12.77;;;18.10;99.90;;;;;;6143578;23;20013;-86
2023/10/07 08:03:27;;;;;;;20.63;12.90;;;18.20;99.90;;;;;;6171262;23;20009;-86
2023/10/07 08:05:55;;;;;;;21.58;14.93;;;18.30;99.90;;;;;;6145988;23;20052;-86
2023/10/07 08:08:29;;;;;;;18.23;12.07;;;18.50;99.90;;;;;;6146601;23;20064;-86
2023/10/07 08:10:55;;;;;;;19.50;11.02;;;18.50;99.90;;;;;;6147638;23;20040;-86
2023/10/07 08:13:27;;;;;;;25.00;13.40;;;18.60;99.90;;;;;;6147345;23;20075;-87
2023/10/07 08:15:54;;;;;;;19.13;11.80;;;18.70;99.90;;;;;;6145768;23;20028;-86
2023/10/07 08:18:28;;;;;;;21.05;13.18;;;18.80;99.90;;;;;;6145827;23;20328;-86
2023/10/07 08:21:09;;;;;;;20.13;12.40;;;18.80;99.90;;;;;;6145431;23;20017;-87
2023/10/07 08:23:36;;;;;;;18.63;13.57;;;18.80;99.90;;;;;;6145444;23;20036;-85
2023/10/07 08:26:12;;;;;;;17.10;11.55;;;18.90;99.90;;;;;;6169652;23;20045;-85
2023/10/07 08:31:27;;;;;;;19.95;13.15;;;18.90;99.90;;;;;;6169239;23;20124;-85
2023/10/07 08:34:09;;;;;;;20.80;14.73;;;18.90;99.90;;;;;;6170281;23;20068;-86
2023/10/07 08:36:43;;;;;;;19.80;14.73;;;19.10;99.90;;;;;;6144350;23;20315;-86
2023/10/07 08:39:09;;;;;;;24.98;12.30;;;19.10;99.90;;;;;;6144571;23;20021;-87
2023/10/07 08:41:40;;;;;;;16.10;12.88;;;19.00;99.90;;;;;;6145727;23;20017;-86
2023/10/07 08:44:14;;;;;;;27.95;15.55;;;19.10;99.90;;;;;;6168961;23;20024;-87
2023/10/07 08:46:54;;;;;;;18.92;12.85;;;19.10;99.90;;;;;;6145079;23;20013;-86
2023/10/07 08:49:25;;;;;;;19.92;14.30;;;19.10;99.90;;;;;;6145320;23;20391;-85
2023/10/07 08:51:52;;;;;;;19.23;13.88;;;19.10;99.90;;;;;;6144740;23;20017;-85
2023/10/07 08:54:19;;;;;;;20.15;12.57;;;18.90;99.90;;;;;;6144442;23;20017;-86
2023/10/07 08:56:54;;;;;;;21.25;13.80;;;19.10;99.90;;;;;;6141653;23;20013;-85
2023/10/07 08:59:25;;;;;;;17.27;13.52;;;19.20;99.90;;;;;;6142761;23;20068;-84
2023/10/07 09:01:57;;;;;;;18.27;14.65;;;19.10;99.90;;;;;;6166825;23;20061;-86
2023/10/07 09:04:33;;;;;;;20.85;13.30;;;19.20;99.90;;;;;;6168502;23;20017;-85
2023/10/07 09:07:00;;;;;;;22.75;14.57;;;19.00;99.90;;;;;;6142896;23;20072;-86
2023/10/07 09:09:35;;;;;;;19.65;14.90;;;19.10;99.90;;;;;;6167953;23;20013;-86
2023/10/07 09:12:08;;;;;;;19.05;13.60;;;19.00;99.90;;;;;;6168055;23;20379;-86
2023/10/07 09:14:35;;;;;;;19.52;15.10;;;18.90;99.90;;;;;;6143818;23;20064;-85
2023/10/07 09:17:04;;;;;;;21.45;13.57;;;18.90;99.90;;;;;;6168753;23;20028;-87
2023/10/07 09:19:30;;;;;;;18.17;14.32;;;19.00;99.90;;;;;;6168894;23;20400;-87
2023/10/07 09:21:57;;;;;;;25.60;13.80;;;19.10;99.90;;;;;;6144177;23;20040;-86
2023/10/07 09:24:26;;;;;;;21.05;12.98;;;19.10;99.90;;;;;;6144801;23;20013;-86
2023/10/07 09:26:59;;;;;;;20.35;15.52;;;19.20;99.90;;;;;;6169300;23;20028;-85
2023/10/07 09:29:26;;;;;;;24.25;16.77;;;19.30;99.90;;;;;;6169279;23;20013;-85
2023/10/07 09:32:37;;;;;;;22.63;16.20;;;19.40;99.90;;;;;;6144737;23;20016;-87
2023/10/07 09:34:45;;;;;;;20.35;17.42;;;19.30;99.90;;;;;;6148311;23;20028;-87
2023/10/07 09:37:20;;;;;;;24.57;16.10;;;19.20;99.90;;;;;;6168664;23;20013;-85
2023/10/07 09:39:54;;;;;;;18.63;13.93;;;19.20;99.90;;;;;;6168245;23;20240;-86
2023/10/07 09:42:26;;;;;;;28.25;15.75;;;19.10;99.90;;;;;;6140945;23;20009;-84
2023/10/07 09:45:01;;;;;;;22.75;17.13;;;19.10;99.90;;;;;;6162760;23;20013;-85
2023/10/07 09:47:27;;;;;;;27.92;16.65;;;19.00;99.90;;;;;;6166687;23;20436;-85
2023/10/07 09:49:59;;;;;;;24.50;17.25;;;19.00;99.90;;;;;;6166187;23;20076;-85
2023/10/07 09:52:29;;;;;;;22.73;18.40;;;19.00;99.90;;;;;;6140245;23;20021;-84
2023/10/07 09:55:21;;;;;;;22.73;15.70;;;19.00;99.90;;;;;;6165031;23;20095;-85
2023/10/07 09:58:29;;;;;;;22.70;18.48;;;19.00;99.90;;;;;;6168485;23;20487;-86
2023/10/07 10:01:05;;;;;;;21.60;15.85;;;19.00;99.90;;;;;;6111185;23;20017;-86
2023/10/07 10:03:59;;;;;;;20.40;18.35;;;19.00;99.90;;;;;;6143604;23;20017;-85
2023/10/07 10:06:25;;;;;;;24.13;17.30;;;18.90;99.90;;;;;;6169673;23;20023;-86
2023/10/07 10:08:59;;;;;;;24.58;15.15;;;18.90;99.90;;;;;;6145065;23;20024;-86
2023/10/07 10:11:44;;;;;;;22.05;17.88;;;19.00;99.90;;;;;;6146446;23;20020;-88
2023/10/07 10:16:59;;;;;;;25.38;18.63;;;19.20;99.90;;;;;;6170742;23;20032;-87
2023/10/07 10:19:37;;;;;;;22.13;20.00;;;19.30;99.90;;;;;;6144461;23;20016;-85
2023/10/07 10:22:10;;;;;;;21.55;15.43;;;19.50;99.90;;;;;;6145566;23;20009;-86
2023/10/07 10:24:43;;;;;;;;;;;19.60;99.90;;;;;;6147241;23;20067;-89
2023/10/07 10:27:12;;;;;;;18.13;15.18;;;19.70;99.90;;;;;;6144232;23;20232;-85
2023/10/07 10:29:52;;;;;;;21.30;14.30;;;20.00;99.90;;;;;;6168330;23;20067;-85
2023/10/07 10:32:28;;;;;;;24.00;20.55;;;20.10;99.90;;;;;;6168497;23;20019;-88
2023/10/07 10:35:03;;;;;;;23.27;16.02;;;20.10;99.90;;;;;;6147569;23;20013;-88
2023/10/07 10:37:30;;;;;;;19.10;15.90;;;20.00;99.90;;;;;;6146434;23;20021;-87
2023/10/07 10:40:14;;;;;;;20.33;18.23;;;20.00;99.90;;;;;;6145901;23;20036;-88
2023/10/07 10:42:41;;;;;;;21.17;17.95;;;19.90;99.90;;;;;;6147039;23;20023;-87
2023/10/07 10:45:15;;;;;;;21.25;14.95;;;19.90;99.90;;;;;;6171096;23;20024;-87
2023/10/07 10:47:46;;;;;;;24.33;20.02;;;19.90;99.90;;;;;;6145488;23;20021;-86
2023/10/07 10:50:16;;;;;;;26.17;23.55;;;19.90;99.90;;;;;;6144027;23;20448;-85
2023/10/07 10:52:43;;;;;;;19.90;17.13;;;19.90;99.90;;;;;;6166370;23;20108;-86
2023/10/07 10:55:11;;;;;;;24.15;17.05;;;20.10;99.90;;;;;;6141740;23;20040;-86
2023/10/07 10:57:40;;;;;;;20.45;14.98;;;20.10;99.90;;;;;;6138859;23;20044;-85
2023/10/07 11:00:19;;;;;;;23.35;20.52;;;20.10;99.90;;;;;;6168669;23;20360;-86
2023/10/07 11:02:45;;;;;;;20.83;14.27;;;20.10;99.90;;;;;;6138967;23;20059;-84
2023/10/07 11:05:12;;;;;;;19.48;17.58;;;20.30;99.90;;;;;;6163869;23;20009;-86
2023/10/07 11:07:39;;;;;;;25.90;21.60;;;20.30;99.90;;;;;;6139694;23;20056;-85
2023/10/07 11:10:09;;;;;;;22.10;16.95;;;20.20;99.90;;;;;;6165289;23;20110;-86
2023/10/07 11:12:36;;;;;;;22.40;17.30;;;20.20;99.90;;;;;;6142857;23;20044;-88
2023/10/07 11:15:13;;;;;;;20.35;17.70;;;20.30;99.90;;;;;;6141006;23;20139;-85
2023/10/07 11:17:56;;;;;;;19.92;17.25;;;20.30;99.90;;;;;;6164226;23;20024;-86
2023/10/07 11:20:32;;;;;;;25.08;18.55;;;20.30;99.90;;;;;;6137291;23;20009;-84
2023/10/07 11:22:58;;;;;;;20.75;16.95;;;20.20;99.90;;;;;;6154025;23;20025;-83
2023/10/07 11:25:27;;;;;;;19.90;17.30;;;20.30;99.90;;;;;;6158436;23;20224;-85
2023/10/07 11:27:54;;;;;;;23.90;17.70;;;20.20;99.90;;;;;;6161994;23;20024;-86
2023/10/07 11:30:22;;;;;;;18.30;15.57;;;20.10;99.90;;;;;;6162052;23;20020;-85
2023/10/07 11:32:48;;;;;;;20.80;18.25;;;20.00;99.90;;;;;;6138235;23;20426;-84
2023/10/07 11:35:27;;;;;;;18.95;15.82;;;19.90;99.90;;;;;;6188979;23;20025;-85
2023/10/07 11:38:02;;;;;;;23.27;16.75;;;19.80;99.90;;;;;;6131798;23;20061;-85
2023/10/07 11:40:30;;;;;;;23.00;15.98;;;19.60;99.90;;;;;;6123296;23;20639;-85
2023/10/07 11:42:58;;;;;;;22.17;17.10;;;19.80;99.90;;;;;;6126408;23;20379;-84
2023/10/07 11:45:26;;;;;;;19.63;17.02;;;19.80;99.90;;;;;;6125725;23;20013;-84
2023/10/07 11:47:56;;;;;;;20.40;16.40;;;19.90;99.90;;;;;;6149384;23;20016;-85
2023/10/07 11:50:27;;;;;;;21.33;17.95;;;19.80;99.90;;;;;;6128439;23;20068;-87
2023/10/07 11:52:53;;;;;;;20.90;15.63;;;19.90;99.90;;;;;;6130349;23;20013;-84
2023/10/07 11:55:20;;;;;;;21.92;16.13;;;19.80;99.90;;;;;;6151220;23;20060;-86
2023/10/07 11:57:45;;;;;;;20.95;16.27;;;19.90;99.90;;;;;;6127447;23;20128;-86
2023/10/07 12:00:31;;;;;;;27.25;21.02;;;19.90;99.90;;;;;;6127632;23;20056;-85
2023/10/07 12:02:57;;;;;;;20.77;16.00;;;20.00;99.90;;;;;;6129609;23;20024;-85
2023/10/07 12:05:27;;;;;;;19.95;16.63;;;20.10;99.90;;;;;;6128965;23;20013;-86
2023/10/07 12:07:55;;;;;;;17.80;15.20;;;20.30;99.90;;;;;;6128625;23;20017;-86
2023/10/07 12:10:22;;;;;;;16.35;14.65;;;20.40;99.90;;;;;;6128211;23;20064;-88
2023/10/07 12:12:49;;;;;;;20.75;16.40;;;20.40;99.90;;;;;;6128413;23;20013;-85
2023/10/07 12:15:17;;;;;;;19.65;16.30;;;20.40;99.90;;;;;;6127417;23;20017;-85
2023/10/07 12:17:44;;;;;;;19.50;16.02;;;20.50;99.90;;;;;;6152066;23;20016;-85
2023/10/07 12:20:13;;;;;;;20.42;16.05;;;20.60;99.90;;;;;;6150505;23;20118;-86
2023/10/07 12:22:42;;;;;;;20.88;16.63;;;20.60;99.90;;;;;;6151191;23;20020;-86
2023/10/07 12:25:18;;;;;;;39.25;35.78;;;20.60;99.90;;;;;;6148872;23;20017;-86
2023/10/07 12:27:48;;;;;;;32.55;29.80;;;20.80;99.90;;;;;;6150614;23;20549;-85
2023/10/07 12:30:20;;;;;;;25.23;19.25;;;20.30;99.90;;;;;;6151342;23;20057;-86
2023/10/07 12:32:48;;;;;;;24.60;16.70;;;20.20;99.90;;;;;;6128253;23;20021;-86
2023/10/07 12:35:15;;;;;;;22.45;16.08;;;20.10;99.90;;;;;;6152469;23;20028;-84
2023/10/07 12:37:47;;;;;;;24.05;15.80;;;20.00;99.90;;;;;;6128289;23;20013;-85
2023/10/07 12:40:20;;;;;;;20.20;15.30;;;20.00;99.90;;;;;;6153796;23;20091;-85
2023/10/07 12:42:46;;;;;;;;;;;20.00;99.90;;;;;;6153906;23;20024;-84
2023/10/07 12:45:13;;;;;;;19.25;15.98;;;20.10;99.90;;;;;;6152414;23;19955;-83
2023/10/07 12:47:41;;;;;;;25.63;17.08;;;20.00;99.90;;;;;;6153392;23;20024;-83
2023/10/07 12:50:28;;;;;;;28.02;16.15;;;20.10;99.90;;;;;;6152895;23;20013;-82
2023/10/07 12:52:57;;;;;;;23.45;17.63;;;20.10;99.90;;;;;;6152697;23;20103;-83
2023/10/07 12:55:29;;;;;;;18.27;16.25;;;20.10;99.90;;;;;;6150976;23;20016;-86
2023/10/07 12:57:55;;;;;;;23.55;15.50;;;20.20;99.90;;;;;;6126944;23;20013;-82
2023/10/07 13:00:31;;;;;;;20.40;16.17;;;20.20;99.90;;;;;;6152690;23;20476;-84
2023/10/07 13:03:06;;;;;;;22.35;20.05;;;20.10;99.90;;;;;;6151815;23;20076;-86
2023/10/07 13:05:35;;;;;;;20.58;18.50;;;20.00;99.90;;;;;;6152458;23;20412;-84
2023/10/07 13:08:00;;;;;;;21.23;16.52;;;20.00;99.90;;;;;;6151658;23;20015;-87
2023/10/07 13:10:26;;;;;;;19.30;14.52;;;19.90;99.90;;;;;;6128171;23;20044;-85
2023/10/07 13:12:57;;;;;;;22.63;17.52;;;19.90;99.90;;;;;;6152184;23;20021;-86
2023/10/07 13:15:30;;;;;;;24.77;17.88;;;19.90;99.90;;;;;;6151710;23;20092;-86
2023/10/07 13:17:58;;;;;;;;;;;19.80;99.90;;;;;;6153741;23;20017;-84
2023/10/07 13:20:26;;;;;;;23.88;17.15;;;19.80;99.90;;;;;;6152367;23;20328;-83
2023/10/07 13:22:53;;;;;;;26.38;23.77;;;19.80;99.90;;;;;;6156390;23;20013;-84
2023/10/07 13:25:20;;;;;;;21.08;18.95;;;19.70;99.90;;;;;;6125489;23;20092;-84
2023/10/07 13:27:47;;;;;;;22.00;19.95;;;19.70;99.90;;;;;;6150294;23;20021;-84
2023/10/07 13:30:15;;;;;;;27.27;23.13;;;19.60;99.90;;;;;;6153157;23;20451;-86